EDW11Y HEMA-LSZH
Flight info
| Callsign | EDW11Y |
|---|---|
| Flight time | 4h 37m |
| Altitude | 34000 |
| Route | ALKUN1A ALKUN V730 MEMPO L300 LXR P751 METRU DCT OLGAT/N0445F380 DCT AIOSA DCT ROTAR/N0445F360 DCT MOBDO/N0447F340 DCT SOTOV/N0448F300 P66 KPT L856 NEGRA |
| Aircraft | A320/M-SDE2E3FGHIJ1RWXY/LB1 |
Departure
| Time | 2026-04-07 10:10 |
|---|---|
| Airport | Marsa Alam International Airport (HEMA) |
Arrival
| Time | 2026-04-07 14:47 |
|---|---|
| Airport | Zürich Airport (LSZH) |
| Time | Latitude | Longitude | Altitude | Speed | Heading |
|---|---|---|---|---|---|
| 2026-04-07 09:23 | 25.55515 | 34.59072 | 253 ft | 0 kts | 59° |
| 2026-04-07 10:01 | 25.55509 | 34.59061 | 252 ft | 4 kts | 59° |
| 2026-04-07 10:01 | 25.55496 | 34.59035 | 252 ft | 4 kts | 63° |
| 2026-04-07 10:02 | 25.55485 | 34.59008 | 252 ft | 4 kts | 80° |
| 2026-04-07 10:02 | 25.55487 | 34.58985 | 252 ft | 3 kts | 145° |
| 2026-04-07 10:02 | 25.55489 | 34.58983 | 252 ft | 0 kts | 152° |
| 2026-04-07 10:05 | 25.55482 | 34.58987 | 252 ft | 4 kts | 152° |
| 2026-04-07 10:06 | 25.55454 | 34.59004 | 252 ft | 7 kts | 150° |
| 2026-04-07 10:06 | 25.55390 | 34.59045 | 252 ft | 15 kts | 150° |
| 2026-04-07 10:06 | 25.55294 | 34.59107 | 252 ft | 15 kts | 149° |
| 2026-04-07 10:06 | 25.55203 | 34.59124 | 252 ft | 13 kts | 214° |
| 2026-04-07 10:07 | 25.55159 | 34.59047 | 252 ft | 11 kts | 239° |
| 2026-04-07 10:07 | 25.55092 | 34.59008 | 253 ft | 16 kts | 162° |
| 2026-04-07 10:07 | 25.54980 | 34.59079 | 253 ft | 18 kts | 150° |
| 2026-04-07 10:07 | 25.54878 | 34.59144 | 253 ft | 16 kts | 150° |
| 2026-04-07 10:08 | 25.54787 | 34.59202 | 252 ft | 14 kts | 150° |
| 2026-04-07 10:08 | 25.54709 | 34.59252 | 252 ft | 12 kts | 150° |
| 2026-04-07 10:08 | 25.54635 | 34.59258 | 252 ft | 10 kts | 216° |
| 2026-04-07 10:08 | 25.54601 | 34.59199 | 253 ft | 8 kts | 240° |
| 2026-04-07 10:09 | 25.54578 | 34.59156 | 254 ft | 5 kts | 242° |
| 2026-04-07 10:09 | 25.54578 | 34.59110 | 254 ft | 9 kts | 296° |
| 2026-04-07 10:09 | 25.54672 | 34.59042 | 254 ft | 38 kts | 330° |
| 2026-04-07 10:09 | 25.55093 | 34.58774 | 253 ft | 100 kts | 330° |
| 2026-04-07 10:10 | 25.55843 | 34.58295 | 255 ft | 147 kts | 330° |
| 2026-04-07 10:10 | 25.56776 | 34.57703 | 726 ft | 156 kts | 330° |
| 2026-04-07 10:10 | 25.57722 | 34.57092 | 1355 ft | 160 kts | 333° |
| 2026-04-07 10:10 | 25.58694 | 34.56467 | 1846 ft | 170 kts | 333° |
| 2026-04-07 10:11 | 25.59770 | 34.55782 | 2138 ft | 187 kts | 332° |
| 2026-04-07 10:11 | 25.60948 | 34.55017 | 2389 ft | 206 kts | 332° |
| 2026-04-07 10:11 | 25.62267 | 34.54173 | 2676 ft | 231 kts | 332° |
| 2026-04-07 10:11 | 25.63722 | 34.53232 | 3143 ft | 249 kts | 331° |
| 2026-04-07 10:12 | 25.65223 | 34.52234 | 3929 ft | 253 kts | 330° |
| 2026-04-07 10:12 | 25.66743 | 34.51228 | 4779 ft | 256 kts | 330° |
| 2026-04-07 10:12 | 25.68269 | 34.50211 | 5629 ft | 257 kts | 324° |
| 2026-04-07 10:12 | 25.69421 | 34.48678 | 6232 ft | 266 kts | 290° |
| 2026-04-07 10:13 | 25.69700 | 34.46657 | 6960 ft | 270 kts | 265° |
| 2026-04-07 10:13 | 25.69160 | 34.44682 | 7789 ft | 271 kts | 241° |
| 2026-04-07 10:13 | 25.68079 | 34.42965 | 8589 ft | 273 kts | 236° |
| 2026-04-07 10:13 | 25.66945 | 34.41273 | 9396 ft | 273 kts | 236° |
| 2026-04-07 10:14 | 25.65801 | 34.39599 | 10217 ft | 272 kts | 236° |
| 2026-04-07 10:14 | 25.64632 | 34.37896 | 10637 ft | 287 kts | 236° |
| 2026-04-07 10:14 | 25.63385 | 34.36055 | 10779 ft | 310 kts | 236° |
| 2026-04-07 10:14 | 25.62055 | 34.34070 | 10933 ft | 330 kts | 236° |
| 2026-04-07 10:15 | 25.60668 | 34.31995 | 11366 ft | 338 kts | 236° |
| 2026-04-07 10:15 | 25.59261 | 34.29892 | 11963 ft | 342 kts | 236° |
| 2026-04-07 10:15 | 25.57836 | 34.27765 | 12592 ft | 345 kts | 237° |
| 2026-04-07 10:15 | 25.56592 | 34.25503 | 13229 ft | 344 kts | 250° |
| 2026-04-07 10:16 | 25.56056 | 34.22948 | 13867 ft | 342 kts | 268° |
| 2026-04-07 10:16 | 25.56250 | 34.20328 | 14466 ft | 342 kts | 278° |
| 2026-04-07 10:16 | 25.56600 | 34.17721 | 15101 ft | 342 kts | 278° |
| 2026-04-07 10:16 | 25.56957 | 34.15118 | 15741 ft | 342 kts | 277° |
| 2026-04-07 10:17 | 25.57314 | 34.12517 | 16378 ft | 342 kts | 277° |
| 2026-04-07 10:17 | 25.57671 | 34.09913 | 16996 ft | 342 kts | 276° |
| 2026-04-07 10:17 | 25.58020 | 34.07350 | 17613 ft | 341 kts | 276° |
| 2026-04-07 10:17 | 25.58371 | 34.04751 | 18207 ft | 341 kts | 275° |
| 2026-04-07 10:18 | 25.58721 | 34.02151 | 18724 ft | 342 kts | 275° |
| 2026-04-07 10:18 | 25.59070 | 33.99542 | 19207 ft | 343 kts | 275° |
| 2026-04-07 10:18 | 25.59418 | 33.96929 | 19697 ft | 343 kts | 274° |
| 2026-04-07 10:18 | 25.59766 | 33.94307 | 20172 ft | 345 kts | 274° |
| 2026-04-07 10:19 | 25.60116 | 33.91672 | 20595 ft | 347 kts | 274° |
| 2026-04-07 10:19 | 25.60819 | 33.86363 | 21444 ft | 350 kts | 274° |
| 2026-04-07 10:19 | 25.61172 | 33.83687 | 21869 ft | 352 kts | 274° |
| 2026-04-07 10:20 | 25.61528 | 33.81000 | 22280 ft | 354 kts | 274° |
| 2026-04-07 10:20 | 25.61889 | 33.78296 | 22687 ft | 356 kts | 274° |
| 2026-04-07 10:20 | 25.62251 | 33.75582 | 23109 ft | 357 kts | 273° |
| 2026-04-07 10:20 | 25.62612 | 33.72852 | 23515 ft | 359 kts | 273° |
| 2026-04-07 10:21 | 25.62973 | 33.70110 | 23869 ft | 361 kts | 273° |
| 2026-04-07 10:21 | 25.63332 | 33.67356 | 24219 ft | 362 kts | 273° |
| 2026-04-07 10:21 | 25.63692 | 33.64590 | 24532 ft | 363 kts | 272° |
| 2026-04-07 10:21 | 25.64057 | 33.61818 | 24844 ft | 364 kts | 272° |
| 2026-04-07 10:22 | 25.64427 | 33.59035 | 25160 ft | 366 kts | 272° |
| 2026-04-07 10:22 | 25.64796 | 33.56242 | 25476 ft | 367 kts | 272° |
| 2026-04-07 10:22 | 25.65162 | 33.53435 | 25776 ft | 369 kts | 272° |
| 2026-04-07 10:22 | 25.65527 | 33.50616 | 26060 ft | 370 kts | 271° |
| 2026-04-07 10:23 | 25.65895 | 33.47785 | 26353 ft | 372 kts | 271° |
| 2026-04-07 10:23 | 25.66265 | 33.44945 | 26650 ft | 373 kts | 271° |
| 2026-04-07 10:23 | 25.66635 | 33.42090 | 26940 ft | 375 kts | 271° |
| 2026-04-07 10:23 | 25.67000 | 33.39265 | 27222 ft | 376 kts | 271° |
| 2026-04-07 10:24 | 25.67369 | 33.36393 | 27500 ft | 377 kts | 271° |
| 2026-04-07 10:24 | 25.67740 | 33.33512 | 27765 ft | 378 kts | 270° |
| 2026-04-07 10:24 | 25.68111 | 33.30616 | 28023 ft | 380 kts | 270° |
| 2026-04-07 10:24 | 25.68487 | 33.27712 | 28278 ft | 381 kts | 270° |
| 2026-04-07 10:25 | 25.68866 | 33.24798 | 28537 ft | 383 kts | 270° |
| 2026-04-07 10:25 | 25.69244 | 33.21875 | 28767 ft | 384 kts | 270° |
| 2026-04-07 10:25 | 25.69618 | 33.18938 | 29006 ft | 385 kts | 270° |
| 2026-04-07 10:25 | 25.69992 | 33.15991 | 29244 ft | 387 kts | 270° |
| 2026-04-07 10:26 | 25.70369 | 33.13038 | 29527 ft | 387 kts | 270° |
| 2026-04-07 10:26 | 25.70749 | 33.10089 | 29890 ft | 386 kts | 269° |
| 2026-04-07 10:26 | 25.71129 | 33.07150 | 30227 ft | 384 kts | 269° |
| 2026-04-07 10:26 | 25.71506 | 33.04224 | 30526 ft | 383 kts | 269° |
| 2026-04-07 10:27 | 25.71880 | 33.01307 | 30848 ft | 381 kts | 269° |
| 2026-04-07 10:27 | 25.72248 | 32.98414 | 31189 ft | 378 kts | 269° |
| 2026-04-07 10:27 | 25.72611 | 32.95539 | 31541 ft | 375 kts | 270° |
| 2026-04-07 10:27 | 25.72970 | 32.92686 | 31873 ft | 373 kts | 270° |
| 2026-04-07 10:28 | 25.73325 | 32.89849 | 32210 ft | 370 kts | 270° |
| 2026-04-07 10:28 | 25.73676 | 32.87029 | 32564 ft | 368 kts | 270° |
| 2026-04-07 10:28 | 25.74025 | 32.84228 | 32895 ft | 365 kts | 270° |
| 2026-04-07 10:28 | 25.74372 | 32.81444 | 33213 ft | 363 kts | 270° |
| 2026-04-07 10:29 | 25.74838 | 32.78685 | 33507 ft | 369 kts | 277° |
| 2026-04-07 10:29 | 25.75828 | 32.76017 | 33770 ft | 382 kts | 288° |
| 2026-04-07 10:29 | 25.77393 | 32.73565 | 34026 ft | 396 kts | 297° |
| 2026-04-07 10:29 | 25.79165 | 32.71225 | 34139 ft | 395 kts | 297° |
| 2026-04-07 10:30 | 25.80930 | 32.68897 | 34160 ft | 394 kts | 297° |
| 2026-04-07 10:30 | 25.84418 | 32.64279 | 34155 ft | 392 kts | 296° |
| 2026-04-07 10:31 | 25.87911 | 32.59624 | 34152 ft | 392 kts | 296° |
| 2026-04-07 10:31 | 25.91397 | 32.54959 | 34149 ft | 393 kts | 296° |
| 2026-04-07 10:32 | 25.94888 | 32.50291 | 34251 ft | 393 kts | 296° |
| 2026-04-07 10:32 | 25.96637 | 32.47956 | 34477 ft | 393 kts | 296° |
| 2026-04-07 10:32 | 25.98380 | 32.45626 | 34718 ft | 391 kts | 296° |
| 2026-04-07 10:32 | 26.00118 | 32.43303 | 34943 ft | 390 kts | 296° |
| 2026-04-07 10:33 | 26.01847 | 32.40989 | 35168 ft | 389 kts | 296° |
| 2026-04-07 10:33 | 26.03572 | 32.38675 | 35385 ft | 388 kts | 296° |
| 2026-04-07 10:33 | 26.05292 | 32.36370 | 35591 ft | 387 kts | 296° |
| 2026-04-07 10:33 | 26.07008 | 32.34072 | 35810 ft | 386 kts | 296° |
| 2026-04-07 10:34 | 26.08721 | 32.31778 | 36001 ft | 385 kts | 296° |
| 2026-04-07 10:34 | 26.10430 | 32.29484 | 36117 ft | 385 kts | 296° |
| 2026-04-07 10:34 | 26.12138 | 32.27191 | 36149 ft | 385 kts | 296° |
| 2026-04-07 10:35 | 26.15550 | 32.22612 | 36152 ft | 384 kts | 296° |
| 2026-04-07 10:35 | 26.18961 | 32.18024 | 36148 ft | 384 kts | 296° |
| 2026-04-07 10:36 | 26.22355 | 32.13431 | 36159 ft | 384 kts | 296° |
| 2026-04-07 10:36 | 26.25755 | 32.08844 | 36149 ft | 384 kts | 296° |
| 2026-04-07 10:37 | 26.29142 | 32.04282 | 36172 ft | 384 kts | 296° |
| 2026-04-07 10:37 | 26.31990 | 32.00431 | 36162 ft | 385 kts | 296° |
| 2026-04-07 10:38 | 26.35392 | 31.95830 | 36165 ft | 385 kts | 296° |
| 2026-04-07 10:38 | 26.38797 | 31.91223 | 36170 ft | 385 kts | 296° |
| 2026-04-07 10:39 | 26.42752 | 31.85869 | 36151 ft | 385 kts | 296° |
| 2026-04-07 10:39 | 26.45598 | 31.82006 | 36151 ft | 385 kts | 296° |
| 2026-04-07 10:40 | 26.48995 | 31.77392 | 36176 ft | 385 kts | 295° |
| 2026-04-07 10:40 | 26.52369 | 31.72802 | 36196 ft | 385 kts | 295° |
| 2026-04-07 10:41 | 26.55787 | 31.68156 | 36162 ft | 384 kts | 295° |
| 2026-04-07 10:41 | 26.59156 | 31.63565 | 36162 ft | 385 kts | 295° |
| 2026-04-07 10:42 | 26.62551 | 31.58935 | 36168 ft | 385 kts | 295° |
| 2026-04-07 10:42 | 26.65953 | 31.54302 | 36175 ft | 386 kts | 295° |
| 2026-04-07 10:43 | 26.69353 | 31.49660 | 36197 ft | 386 kts | 295° |
| 2026-04-07 10:43 | 26.72749 | 31.45009 | 36194 ft | 386 kts | 295° |
| 2026-04-07 10:44 | 26.76151 | 31.40354 | 36194 ft | 386 kts | 295° |
| 2026-04-07 10:44 | 26.79550 | 31.35698 | 36194 ft | 386 kts | 295° |
| 2026-04-07 10:45 | 26.82948 | 31.31036 | 36200 ft | 386 kts | 295° |
| 2026-04-07 10:45 | 26.86344 | 31.26371 | 36222 ft | 386 kts | 295° |
| 2026-04-07 10:46 | 26.89740 | 31.21701 | 36261 ft | 387 kts | 296° |
| 2026-04-07 10:46 | 26.93141 | 31.17031 | 36274 ft | 387 kts | 296° |
| 2026-04-07 10:47 | 26.96530 | 31.12356 | 36282 ft | 387 kts | 295° |
| 2026-04-07 10:47 | 26.99921 | 31.07670 | 36283 ft | 387 kts | 295° |
| 2026-04-07 10:48 | 27.03473 | 31.03088 | 36283 ft | 401 kts | 304° |
| 2026-04-07 10:48 | 27.05731 | 31.01145 | 36285 ft | 414 kts | 309° |
| 2026-04-07 10:48 | 27.08085 | 30.99282 | 36285 ft | 414 kts | 310° |
| 2026-04-07 10:49 | 27.12796 | 30.95557 | 36330 ft | 414 kts | 310° |
| 2026-04-07 10:49 | 27.15142 | 30.93702 | 36221 ft | 410 kts | 310° |
| 2026-04-07 10:49 | 27.17467 | 30.91860 | 36215 ft | 408 kts | 309° |
| 2026-04-07 10:50 | 27.22099 | 30.88167 | 36213 ft | 408 kts | 309° |
| 2026-04-07 10:50 | 27.26721 | 30.84470 | 36216 ft | 408 kts | 310° |
| 2026-04-07 10:51 | 27.31336 | 30.80776 | 36199 ft | 407 kts | 310° |
| 2026-04-07 10:51 | 27.35932 | 30.77100 | 36199 ft | 408 kts | 310° |
| 2026-04-07 10:52 | 27.40572 | 30.73396 | 36203 ft | 409 kts | 310° |
| 2026-04-07 10:52 | 27.45210 | 30.69687 | 36204 ft | 409 kts | 310° |
| 2026-04-07 10:53 | 27.49879 | 30.65940 | 36206 ft | 409 kts | 310° |
| 2026-04-07 10:53 | 27.54485 | 30.62243 | 36211 ft | 409 kts | 310° |
| 2026-04-07 10:54 | 27.59128 | 30.58519 | 36226 ft | 410 kts | 310° |
| 2026-04-07 10:54 | 27.63772 | 30.54789 | 36206 ft | 410 kts | 310° |
| 2026-04-07 10:55 | 27.68416 | 30.51038 | 36205 ft | 411 kts | 310° |
| 2026-04-07 10:55 | 27.73062 | 30.47281 | 36202 ft | 411 kts | 310° |
| 2026-04-07 10:56 | 27.77719 | 30.43523 | 36204 ft | 412 kts | 310° |
| 2026-04-07 10:56 | 27.82383 | 30.39765 | 36239 ft | 412 kts | 310° |
| 2026-04-07 10:57 | 27.87043 | 30.35997 | 36230 ft | 412 kts | 310° |
| 2026-04-07 10:57 | 27.91703 | 30.32223 | 36225 ft | 412 kts | 311° |
| 2026-04-07 10:58 | 27.96361 | 30.28442 | 36203 ft | 412 kts | 311° |
| 2026-04-07 10:58 | 28.01024 | 30.24656 | 36199 ft | 413 kts | 311° |
| 2026-04-07 10:59 | 28.05698 | 30.20864 | 36197 ft | 413 kts | 311° |
| 2026-04-07 10:59 | 28.10372 | 30.17061 | 36203 ft | 414 kts | 311° |
| 2026-04-07 11:00 | 28.15049 | 30.13257 | 36205 ft | 414 kts | 311° |
| 2026-04-07 11:00 | 28.19726 | 30.09446 | 36216 ft | 414 kts | 311° |
| 2026-04-07 11:01 | 28.24405 | 30.05623 | 36222 ft | 415 kts | 311° |
| 2026-04-07 11:01 | 28.29104 | 30.01788 | 36209 ft | 416 kts | 311° |
| 2026-04-07 11:02 | 28.33805 | 29.97945 | 36205 ft | 417 kts | 311° |
| 2026-04-07 11:02 | 28.38515 | 29.94088 | 36206 ft | 417 kts | 311° |
| 2026-04-07 11:03 | 28.43191 | 29.90254 | 36205 ft | 418 kts | 311° |
| 2026-04-07 11:03 | 28.47902 | 29.86388 | 36208 ft | 418 kts | 311° |
| 2026-04-07 11:04 | 28.52614 | 29.82516 | 36227 ft | 418 kts | 311° |
| 2026-04-07 11:04 | 28.57335 | 29.78634 | 36217 ft | 419 kts | 312° |
| 2026-04-07 11:05 | 28.62068 | 29.74745 | 36206 ft | 420 kts | 312° |
| 2026-04-07 11:05 | 28.66807 | 29.70846 | 36208 ft | 421 kts | 312° |
| 2026-04-07 11:06 | 28.71546 | 29.66928 | 36209 ft | 421 kts | 312° |
| 2026-04-07 11:06 | 28.76291 | 29.63009 | 36210 ft | 421 kts | 312° |
| 2026-04-07 11:07 | 28.81034 | 29.59086 | 36218 ft | 421 kts | 312° |
| 2026-04-07 11:07 | 28.85777 | 29.55151 | 36254 ft | 422 kts | 312° |
| 2026-04-07 11:08 | 28.90525 | 29.51209 | 36229 ft | 423 kts | 313° |
| 2026-04-07 11:08 | 28.95285 | 29.47256 | 36225 ft | 423 kts | 313° |
| 2026-04-07 11:09 | 29.00046 | 29.43300 | 36223 ft | 424 kts | 313° |
| 2026-04-07 11:09 | 29.04779 | 29.39362 | 36223 ft | 424 kts | 313° |
| 2026-04-07 11:10 | 29.09546 | 29.35391 | 36226 ft | 424 kts | 313° |
| 2026-04-07 11:10 | 29.14304 | 29.31413 | 36226 ft | 423 kts | 312° |
| 2026-04-07 11:11 | 29.19003 | 29.27366 | 36255 ft | 422 kts | 311° |
| 2026-04-07 11:11 | 29.23677 | 29.23284 | 36255 ft | 423 kts | 312° |
| 2026-04-07 11:12 | 29.28359 | 29.19211 | 36245 ft | 423 kts | 312° |
| 2026-04-07 11:12 | 29.33053 | 29.15142 | 36242 ft | 423 kts | 312° |
| 2026-04-07 11:13 | 29.37739 | 29.11063 | 36241 ft | 423 kts | 312° |
| 2026-04-07 11:13 | 29.42423 | 29.06986 | 36234 ft | 423 kts | 312° |
| 2026-04-07 11:14 | 29.47100 | 29.02898 | 36233 ft | 423 kts | 312° |
| 2026-04-07 11:14 | 29.51777 | 28.98799 | 36241 ft | 423 kts | 312° |
| 2026-04-07 11:15 | 29.56453 | 28.94700 | 36244 ft | 423 kts | 313° |
| 2026-04-07 11:15 | 29.61132 | 28.90596 | 36240 ft | 423 kts | 313° |
| 2026-04-07 11:16 | 29.65808 | 28.86483 | 36240 ft | 423 kts | 313° |
| 2026-04-07 11:16 | 29.70488 | 28.82363 | 36233 ft | 424 kts | 313° |
| 2026-04-07 11:17 | 29.75173 | 28.78241 | 36233 ft | 424 kts | 313° |
| 2026-04-07 11:17 | 29.79852 | 28.74118 | 36233 ft | 424 kts | 313° |
| 2026-04-07 11:18 | 29.84536 | 28.69984 | 36239 ft | 424 kts | 313° |
| 2026-04-07 11:18 | 29.89215 | 28.65852 | 36244 ft | 424 kts | 313° |
| 2026-04-07 11:19 | 29.93904 | 28.61715 | 36236 ft | 425 kts | 313° |
| 2026-04-07 11:19 | 29.98595 | 28.57572 | 36233 ft | 425 kts | 313° |
| 2026-04-07 11:20 | 30.03270 | 28.53414 | 36235 ft | 425 kts | 313° |
| 2026-04-07 11:20 | 30.07919 | 28.49281 | 36231 ft | 425 kts | 313° |
| 2026-04-07 11:21 | 30.12603 | 28.45124 | 36231 ft | 425 kts | 313° |
| 2026-04-07 11:21 | 30.17282 | 28.40948 | 36237 ft | 424 kts | 312° |
| 2026-04-07 11:22 | 30.21741 | 28.36551 | 36254 ft | 420 kts | 309° |
| 2026-04-07 11:22 | 30.26064 | 28.32015 | 36249 ft | 420 kts | 309° |
| 2026-04-07 11:23 | 30.30409 | 28.27499 | 36245 ft | 420 kts | 310° |
| 2026-04-07 11:23 | 30.34794 | 28.23015 | 36239 ft | 421 kts | 310° |
| 2026-04-07 11:24 | 30.39187 | 28.18544 | 36237 ft | 421 kts | 310° |
| 2026-04-07 11:24 | 30.43570 | 28.14057 | 36239 ft | 421 kts | 310° |
| 2026-04-07 11:25 | 30.50149 | 28.07312 | 36253 ft | 421 kts | 310° |
| 2026-04-07 11:25 | 30.53794 | 28.03562 | 36257 ft | 422 kts | 311° |
| 2026-04-07 11:26 | 30.58179 | 27.99046 | 36249 ft | 422 kts | 311° |
| 2026-04-07 11:26 | 30.62568 | 27.94516 | 36244 ft | 422 kts | 311° |
| 2026-04-07 11:27 | 30.66954 | 27.89985 | 36241 ft | 422 kts | 311° |
| 2026-04-07 11:27 | 30.71342 | 27.85448 | 36239 ft | 422 kts | 311° |
| 2026-04-07 11:28 | 30.75734 | 27.80916 | 36242 ft | 422 kts | 311° |
| 2026-04-07 11:28 | 30.80128 | 27.76379 | 36265 ft | 422 kts | 311° |
| 2026-04-07 11:29 | 30.84519 | 27.71829 | 36250 ft | 423 kts | 311° |
| 2026-04-07 11:29 | 30.88881 | 27.67299 | 36247 ft | 423 kts | 311° |
| 2026-04-07 11:30 | 30.93281 | 27.62731 | 36244 ft | 424 kts | 311° |
| 2026-04-07 11:30 | 30.97676 | 27.58155 | 36251 ft | 424 kts | 311° |
| 2026-04-07 11:31 | 31.02072 | 27.53571 | 36245 ft | 424 kts | 311° |
| 2026-04-07 11:31 | 31.06464 | 27.48986 | 36252 ft | 424 kts | 311° |
| 2026-04-07 11:32 | 31.10858 | 27.44392 | 36271 ft | 424 kts | 311° |
| 2026-04-07 11:32 | 31.15258 | 27.39791 | 36293 ft | 425 kts | 312° |
| 2026-04-07 11:33 | 31.19671 | 27.35173 | 36292 ft | 426 kts | 312° |
| 2026-04-07 11:33 | 31.24088 | 27.30542 | 36299 ft | 427 kts | 312° |
| 2026-04-07 11:34 | 31.28505 | 27.25900 | 36302 ft | 427 kts | 312° |
| 2026-04-07 11:34 | 31.33061 | 27.21408 | 36301 ft | 434 kts | 320° |
| 2026-04-07 11:35 | 31.38164 | 27.17597 | 36257 ft | 435 kts | 321° |
| 2026-04-07 11:35 | 31.43277 | 27.13798 | 36294 ft | 435 kts | 321° |
| 2026-04-07 11:36 | 31.48388 | 27.09981 | 36281 ft | 436 kts | 321° |
| 2026-04-07 11:36 | 31.53466 | 27.06179 | 36275 ft | 436 kts | 321° |
| 2026-04-07 11:37 | 31.58576 | 27.02348 | 36271 ft | 436 kts | 321° |
| 2026-04-07 11:37 | 31.63687 | 26.98503 | 36259 ft | 436 kts | 321° |
| 2026-04-07 11:38 | 31.68798 | 26.94655 | 36262 ft | 436 kts | 321° |
| 2026-04-07 11:38 | 31.73905 | 26.90800 | 36274 ft | 436 kts | 322° |
| 2026-04-07 11:39 | 31.79015 | 26.86938 | 36277 ft | 437 kts | 322° |
| 2026-04-07 11:39 | 31.84132 | 26.83079 | 36272 ft | 437 kts | 322° |
| 2026-04-07 11:40 | 31.89249 | 26.79216 | 36267 ft | 437 kts | 322° |
| 2026-04-07 11:40 | 31.94358 | 26.75338 | 36265 ft | 437 kts | 322° |
| 2026-04-07 11:41 | 31.99468 | 26.71456 | 36259 ft | 437 kts | 322° |
| 2026-04-07 11:41 | 32.04581 | 26.67572 | 36279 ft | 437 kts | 322° |
| 2026-04-07 11:42 | 32.09694 | 26.63687 | 36266 ft | 438 kts | 322° |
| 2026-04-07 11:42 | 32.14812 | 26.59797 | 36259 ft | 438 kts | 322° |
| 2026-04-07 11:43 | 32.19930 | 26.55896 | 36257 ft | 438 kts | 322° |
| 2026-04-07 11:43 | 32.25040 | 26.51989 | 36253 ft | 438 kts | 322° |
| 2026-04-07 11:44 | 32.30155 | 26.48072 | 36253 ft | 438 kts | 322° |
| 2026-04-07 11:44 | 32.35271 | 26.44157 | 36263 ft | 438 kts | 323° |
| 2026-04-07 11:45 | 32.40395 | 26.40227 | 36254 ft | 439 kts | 323° |
| 2026-04-07 11:45 | 32.45512 | 26.36292 | 36248 ft | 439 kts | 323° |
| 2026-04-07 11:46 | 32.50635 | 26.32348 | 36247 ft | 439 kts | 323° |
| 2026-04-07 11:46 | 32.55761 | 26.28404 | 36247 ft | 439 kts | 323° |
| 2026-04-07 11:47 | 32.60889 | 26.24455 | 36252 ft | 439 kts | 323° |
| 2026-04-07 11:47 | 32.66014 | 26.20498 | 36261 ft | 440 kts | 324° |
| 2026-04-07 11:48 | 32.71106 | 26.16563 | 36252 ft | 440 kts | 324° |
| 2026-04-07 11:48 | 32.76235 | 26.12595 | 36248 ft | 440 kts | 324° |
| 2026-04-07 11:49 | 32.81363 | 26.08619 | 36247 ft | 440 kts | 323° |
| 2026-04-07 11:49 | 32.86487 | 26.04632 | 36246 ft | 440 kts | 323° |
| 2026-04-07 11:50 | 32.91612 | 26.00653 | 36258 ft | 440 kts | 324° |
| 2026-04-07 11:50 | 32.96736 | 25.96662 | 36253 ft | 440 kts | 324° |
| 2026-04-07 11:51 | 33.01853 | 25.92659 | 36250 ft | 440 kts | 324° |
| 2026-04-07 11:51 | 33.06973 | 25.88648 | 36248 ft | 440 kts | 324° |
| 2026-04-07 11:52 | 33.12091 | 25.84642 | 36245 ft | 440 kts | 324° |
| 2026-04-07 11:52 | 33.17212 | 25.80634 | 36244 ft | 440 kts | 324° |
| 2026-04-07 11:53 | 33.22328 | 25.76621 | 36246 ft | 440 kts | 324° |
| 2026-04-07 11:53 | 33.27447 | 25.72596 | 36242 ft | 440 kts | 324° |
| 2026-04-07 11:54 | 33.32568 | 25.68570 | 36239 ft | 440 kts | 324° |
| 2026-04-07 11:54 | 33.37683 | 25.64542 | 36240 ft | 440 kts | 324° |
| 2026-04-07 11:55 | 33.42800 | 25.60513 | 36238 ft | 441 kts | 325° |
| 2026-04-07 11:55 | 33.47924 | 25.56475 | 36242 ft | 441 kts | 324° |
| 2026-04-07 11:56 | 33.53043 | 25.52431 | 36246 ft | 441 kts | 325° |
| 2026-04-07 11:56 | 33.58163 | 25.48372 | 36244 ft | 441 kts | 325° |
| 2026-04-07 11:57 | 33.63277 | 25.44307 | 36237 ft | 441 kts | 325° |
| 2026-04-07 11:57 | 33.68360 | 25.40265 | 36236 ft | 441 kts | 325° |
| 2026-04-07 11:58 | 33.73478 | 25.36192 | 36236 ft | 441 kts | 325° |
| 2026-04-07 11:58 | 33.78591 | 25.32111 | 36240 ft | 441 kts | 326° |
| 2026-04-07 11:59 | 33.83701 | 25.28028 | 36242 ft | 441 kts | 326° |
| 2026-04-07 11:59 | 33.88806 | 25.23955 | 36244 ft | 440 kts | 326° |
| 2026-04-07 12:00 | 33.93898 | 25.19881 | 36244 ft | 439 kts | 326° |
| 2026-04-07 12:00 | 33.98984 | 25.15803 | 36243 ft | 439 kts | 326° |
| 2026-04-07 12:01 | 34.03990 | 25.11596 | 36242 ft | 439 kts | 323° |
| 2026-04-07 12:01 | 34.08887 | 25.07207 | 36240 ft | 439 kts | 323° |
| 2026-04-07 12:02 | 34.13767 | 25.02788 | 36237 ft | 438 kts | 323° |
| 2026-04-07 12:02 | 34.18665 | 24.98402 | 36232 ft | 438 kts | 324° |
| 2026-04-07 12:03 | 34.23561 | 24.94039 | 36240 ft | 437 kts | 324° |
| 2026-04-07 12:03 | 34.28452 | 24.89678 | 36237 ft | 437 kts | 323° |
| 2026-04-07 12:04 | 34.33331 | 24.85311 | 36233 ft | 436 kts | 323° |
| 2026-04-07 12:04 | 34.38209 | 24.80940 | 36232 ft | 436 kts | 324° |
| 2026-04-07 12:05 | 34.43086 | 24.76562 | 36227 ft | 436 kts | 324° |
| 2026-04-07 12:05 | 34.47932 | 24.72213 | 36226 ft | 436 kts | 324° |
| 2026-04-07 12:06 | 34.52808 | 24.67825 | 36224 ft | 436 kts | 323° |
| 2026-04-07 12:06 | 34.57680 | 24.63427 | 36226 ft | 436 kts | 324° |
| 2026-04-07 12:07 | 34.62556 | 24.59030 | 36221 ft | 437 kts | 323° |
| 2026-04-07 12:07 | 34.67421 | 24.54625 | 36226 ft | 437 kts | 324° |
| 2026-04-07 12:08 | 34.72288 | 24.50208 | 36230 ft | 436 kts | 324° |
| 2026-04-07 12:08 | 34.77153 | 24.45797 | 36223 ft | 436 kts | 324° |
| 2026-04-07 12:09 | 34.82021 | 24.41386 | 36219 ft | 436 kts | 324° |
| 2026-04-07 12:09 | 34.86874 | 24.36958 | 36219 ft | 436 kts | 323° |
| 2026-04-07 12:10 | 34.91728 | 24.32530 | 36219 ft | 436 kts | 324° |
| 2026-04-07 12:10 | 34.96551 | 24.28139 | 36223 ft | 435 kts | 324° |
| 2026-04-07 12:11 | 35.01400 | 24.23710 | 36227 ft | 435 kts | 324° |
| 2026-04-07 12:11 | 35.06240 | 24.19279 | 36226 ft | 435 kts | 323° |
| 2026-04-07 12:12 | 35.11083 | 24.14841 | 36222 ft | 435 kts | 323° |
| 2026-04-07 12:12 | 35.15924 | 24.10397 | 36221 ft | 435 kts | 323° |
| 2026-04-07 12:13 | 35.20759 | 24.05950 | 36209 ft | 435 kts | 324° |
| 2026-04-07 12:13 | 35.25592 | 24.01505 | 36211 ft | 434 kts | 324° |
| 2026-04-07 12:14 | 35.30415 | 23.97054 | 36219 ft | 434 kts | 324° |
| 2026-04-07 12:14 | 35.34414 | 23.93352 | 36217 ft | 434 kts | 324° |
| 2026-04-07 12:15 | 35.39232 | 23.88892 | 36219 ft | 434 kts | 324° |
| 2026-04-07 12:15 | 35.44824 | 23.83714 | 36219 ft | 433 kts | 324° |
| 2026-04-07 12:16 | 35.49631 | 23.79252 | 36221 ft | 433 kts | 323° |
| 2026-04-07 12:16 | 35.53652 | 23.75512 | 36226 ft | 433 kts | 324° |
| 2026-04-07 12:17 | 35.58460 | 23.71045 | 36221 ft | 433 kts | 324° |
| 2026-04-07 12:17 | 35.63257 | 23.66574 | 36221 ft | 433 kts | 324° |
| 2026-04-07 12:18 | 35.68016 | 23.62124 | 36226 ft | 433 kts | 324° |
| 2026-04-07 12:18 | 35.72806 | 23.57643 | 36220 ft | 433 kts | 324° |
| 2026-04-07 12:19 | 35.77598 | 23.53159 | 36218 ft | 432 kts | 324° |
| 2026-04-07 12:19 | 35.82379 | 23.48666 | 36218 ft | 432 kts | 324° |
| 2026-04-07 12:20 | 35.87161 | 23.44163 | 36219 ft | 432 kts | 324° |
| 2026-04-07 12:20 | 35.91944 | 23.39671 | 36210 ft | 432 kts | 324° |
| 2026-04-07 12:21 | 35.96724 | 23.35170 | 36212 ft | 432 kts | 324° |
| 2026-04-07 12:21 | 36.01498 | 23.30664 | 36213 ft | 432 kts | 324° |
| 2026-04-07 12:22 | 36.06270 | 23.26157 | 36213 ft | 432 kts | 324° |
| 2026-04-07 12:22 | 36.11044 | 23.21648 | 36214 ft | 432 kts | 324° |
| 2026-04-07 12:23 | 36.15811 | 23.17130 | 36212 ft | 432 kts | 324° |
| 2026-04-07 12:23 | 36.20573 | 23.12595 | 36211 ft | 432 kts | 323° |
| 2026-04-07 12:24 | 36.25332 | 23.08059 | 36203 ft | 432 kts | 324° |
| 2026-04-07 12:24 | 36.30099 | 23.03530 | 36207 ft | 432 kts | 324° |
| 2026-04-07 12:25 | 36.34858 | 22.98991 | 36208 ft | 431 kts | 323° |
| 2026-04-07 12:25 | 36.39579 | 22.94469 | 36206 ft | 431 kts | 323° |
| 2026-04-07 12:26 | 36.44364 | 22.89888 | 36204 ft | 431 kts | 324° |
| 2026-04-07 12:26 | 36.49086 | 22.85372 | 36204 ft | 431 kts | 323° |
| 2026-04-07 12:27 | 36.53841 | 22.80812 | 36200 ft | 431 kts | 323° |
| 2026-04-07 12:27 | 36.58585 | 22.76241 | 36196 ft | 432 kts | 323° |
| 2026-04-07 12:28 | 36.63332 | 22.71665 | 36198 ft | 432 kts | 323° |
| 2026-04-07 12:29 | 36.70447 | 22.64797 | 36200 ft | 432 kts | 323° |
| 2026-04-07 12:29 | 36.75195 | 22.60203 | 36203 ft | 432 kts | 323° |
| 2026-04-07 12:30 | 36.79939 | 22.55613 | 36209 ft | 432 kts | 323° |
| 2026-04-07 12:30 | 36.84683 | 22.51013 | 36201 ft | 432 kts | 323° |
| 2026-04-07 12:31 | 36.89421 | 22.46411 | 36202 ft | 432 kts | 323° |
| 2026-04-07 12:31 | 36.94162 | 22.41802 | 36192 ft | 432 kts | 323° |
| 2026-04-07 12:32 | 36.98862 | 22.37216 | 36196 ft | 431 kts | 323° |
| 2026-04-07 12:32 | 37.03589 | 22.32586 | 36203 ft | 431 kts | 323° |
| 2026-04-07 12:33 | 37.08319 | 22.27962 | 36201 ft | 431 kts | 323° |
| 2026-04-07 12:33 | 37.13044 | 22.23335 | 36199 ft | 431 kts | 323° |
| 2026-04-07 12:34 | 37.17769 | 22.18703 | 36201 ft | 431 kts | 323° |
| 2026-04-07 12:34 | 37.22490 | 22.14064 | 36204 ft | 431 kts | 323° |
| 2026-04-07 12:35 | 37.27207 | 22.09411 | 36199 ft | 431 kts | 323° |
| 2026-04-07 12:35 | 37.31924 | 22.04765 | 36218 ft | 431 kts | 323° |
| 2026-04-07 12:36 | 37.36638 | 22.00106 | 36220 ft | 431 kts | 323° |
| 2026-04-07 12:36 | 37.41347 | 21.95438 | 36221 ft | 431 kts | 323° |
| 2026-04-07 12:37 | 37.46057 | 21.90763 | 36230 ft | 431 kts | 323° |
| 2026-04-07 12:37 | 37.50764 | 21.86090 | 36233 ft | 431 kts | 323° |
| 2026-04-07 12:38 | 37.55473 | 21.81417 | 36233 ft | 431 kts | 323° |
| 2026-04-07 12:38 | 37.60176 | 21.76728 | 36224 ft | 431 kts | 323° |
| 2026-04-07 12:39 | 37.64848 | 21.72069 | 36223 ft | 431 kts | 323° |
| 2026-04-07 12:39 | 37.69548 | 21.67376 | 36232 ft | 431 kts | 323° |
| 2026-04-07 12:40 | 37.74249 | 21.62665 | 36225 ft | 431 kts | 323° |
| 2026-04-07 12:40 | 37.78943 | 21.57958 | 36227 ft | 431 kts | 323° |
| 2026-04-07 12:41 | 37.83639 | 21.53240 | 36228 ft | 431 kts | 323° |
| 2026-04-07 12:41 | 37.88334 | 21.48521 | 36224 ft | 431 kts | 323° |
| 2026-04-07 12:42 | 37.93033 | 21.43793 | 36225 ft | 431 kts | 323° |
| 2026-04-07 12:42 | 37.97721 | 21.39055 | 36226 ft | 431 kts | 323° |
| 2026-04-07 12:43 | 38.02410 | 21.34309 | 36228 ft | 431 kts | 323° |
| 2026-04-07 12:43 | 38.07101 | 21.29563 | 36224 ft | 431 kts | 323° |
| 2026-04-07 12:44 | 38.11786 | 21.24805 | 36224 ft | 431 kts | 323° |
| 2026-04-07 12:44 | 38.16474 | 21.20042 | 36226 ft | 431 kts | 323° |
| 2026-04-07 12:45 | 38.21157 | 21.15278 | 36228 ft | 431 kts | 323° |
| 2026-04-07 12:45 | 38.25837 | 21.10505 | 36222 ft | 431 kts | 323° |
| 2026-04-07 12:46 | 38.30522 | 21.05715 | 36219 ft | 432 kts | 323° |
| 2026-04-07 12:46 | 38.35208 | 21.00925 | 36217 ft | 432 kts | 323° |
| 2026-04-07 12:47 | 38.39858 | 20.96157 | 36226 ft | 432 kts | 323° |
| 2026-04-07 12:47 | 38.44565 | 20.91322 | 36226 ft | 432 kts | 323° |
| 2026-04-07 12:48 | 38.49216 | 20.86550 | 36231 ft | 432 kts | 323° |
| 2026-04-07 12:48 | 38.53896 | 20.81743 | 36230 ft | 432 kts | 323° |
| 2026-04-07 12:49 | 38.58568 | 20.76916 | 36219 ft | 432 kts | 322° |
| 2026-04-07 12:49 | 38.63228 | 20.72085 | 36232 ft | 432 kts | 323° |
| 2026-04-07 12:50 | 38.67895 | 20.67245 | 36231 ft | 432 kts | 323° |
| 2026-04-07 12:50 | 38.72562 | 20.62405 | 36234 ft | 432 kts | 323° |
| 2026-04-07 12:51 | 38.77233 | 20.57562 | 36236 ft | 432 kts | 323° |
| 2026-04-07 12:51 | 38.81896 | 20.52715 | 36234 ft | 432 kts | 322° |
| 2026-04-07 12:52 | 38.86557 | 20.47854 | 36234 ft | 432 kts | 322° |
| 2026-04-07 12:52 | 38.91212 | 20.42982 | 36229 ft | 432 kts | 322° |
| 2026-04-07 12:53 | 38.95867 | 20.38104 | 36229 ft | 432 kts | 322° |
| 2026-04-07 12:53 | 39.00527 | 20.33217 | 36232 ft | 432 kts | 322° |
| 2026-04-07 12:54 | 39.05190 | 20.28331 | 36234 ft | 432 kts | 322° |
| 2026-04-07 12:54 | 39.09847 | 20.23432 | 36234 ft | 432 kts | 322° |
| 2026-04-07 12:55 | 39.14501 | 20.18517 | 36221 ft | 432 kts | 322° |
| 2026-04-07 12:55 | 39.19155 | 20.13604 | 36216 ft | 432 kts | 322° |
| 2026-04-07 12:56 | 39.23809 | 20.08684 | 36213 ft | 433 kts | 322° |
| 2026-04-07 12:56 | 39.28460 | 20.03755 | 36217 ft | 433 kts | 322° |
| 2026-04-07 12:57 | 39.33110 | 19.98820 | 36220 ft | 433 kts | 322° |
| 2026-04-07 12:57 | 39.37760 | 19.93874 | 36213 ft | 433 kts | 322° |
| 2026-04-07 12:58 | 39.42408 | 19.88921 | 36219 ft | 433 kts | 322° |
| 2026-04-07 12:58 | 39.47054 | 19.83963 | 36222 ft | 433 kts | 322° |
| 2026-04-07 12:59 | 39.51701 | 19.79008 | 36219 ft | 433 kts | 322° |
| 2026-04-07 12:59 | 39.56345 | 19.74040 | 36219 ft | 433 kts | 322° |
| 2026-04-07 13:00 | 39.60986 | 19.69061 | 36216 ft | 433 kts | 322° |
| 2026-04-07 13:00 | 39.65622 | 19.64073 | 36209 ft | 433 kts | 322° |
| 2026-04-07 13:01 | 39.70228 | 19.59112 | 36218 ft | 433 kts | 322° |
| 2026-04-07 13:01 | 39.74860 | 19.54116 | 36218 ft | 433 kts | 322° |
| 2026-04-07 13:02 | 39.79489 | 19.49112 | 36223 ft | 433 kts | 322° |
| 2026-04-07 13:02 | 39.84118 | 19.44098 | 36215 ft | 433 kts | 322° |
| 2026-04-07 13:03 | 39.88746 | 19.39085 | 36219 ft | 433 kts | 322° |
| 2026-04-07 13:03 | 39.93370 | 19.34063 | 36220 ft | 433 kts | 322° |
| 2026-04-07 13:04 | 39.97213 | 19.29877 | 36224 ft | 433 kts | 322° |
| 2026-04-07 13:04 | 40.01830 | 19.24836 | 36231 ft | 433 kts | 322° |
| 2026-04-07 13:05 | 40.06444 | 19.19786 | 36229 ft | 433 kts | 322° |
| 2026-04-07 13:05 | 40.11054 | 19.14735 | 36227 ft | 433 kts | 322° |
| 2026-04-07 13:06 | 40.15665 | 19.09678 | 36222 ft | 433 kts | 322° |
| 2026-04-07 13:06 | 40.20282 | 19.04627 | 36224 ft | 433 kts | 322° |
| 2026-04-07 13:07 | 40.24895 | 18.99566 | 36229 ft | 433 kts | 322° |
| 2026-04-07 13:07 | 40.29606 | 18.94674 | 36235 ft | 432 kts | 325° |
| 2026-04-07 13:08 | 40.34407 | 18.89939 | 36235 ft | 432 kts | 325° |
| 2026-04-07 13:08 | 40.39194 | 18.85182 | 36237 ft | 432 kts | 324° |
| 2026-04-07 13:09 | 40.43951 | 18.80370 | 36240 ft | 432 kts | 324° |
| 2026-04-07 13:09 | 40.48696 | 18.75533 | 36225 ft | 432 kts | 324° |
| 2026-04-07 13:10 | 40.53445 | 18.70704 | 36226 ft | 432 kts | 324° |
| 2026-04-07 13:10 | 40.58195 | 18.65874 | 36228 ft | 432 kts | 324° |
| 2026-04-07 13:11 | 40.62943 | 18.61029 | 36230 ft | 432 kts | 324° |
| 2026-04-07 13:11 | 40.67685 | 18.56175 | 36232 ft | 432 kts | 324° |
| 2026-04-07 13:12 | 40.72430 | 18.51316 | 36231 ft | 432 kts | 324° |
| 2026-04-07 13:12 | 40.77171 | 18.46452 | 36234 ft | 432 kts | 324° |
| 2026-04-07 13:13 | 40.81909 | 18.41582 | 36222 ft | 432 kts | 324° |
| 2026-04-07 13:13 | 40.86645 | 18.36709 | 36222 ft | 432 kts | 324° |
| 2026-04-07 13:14 | 40.91378 | 18.31816 | 36223 ft | 432 kts | 324° |
| 2026-04-07 13:14 | 40.96110 | 18.26923 | 36222 ft | 432 kts | 324° |
| 2026-04-07 13:15 | 41.00842 | 18.22023 | 36228 ft | 432 kts | 323° |
| 2026-04-07 13:15 | 41.05571 | 18.17122 | 36229 ft | 432 kts | 324° |
| 2026-04-07 13:16 | 41.10266 | 18.12240 | 36228 ft | 432 kts | 323° |
| 2026-04-07 13:16 | 41.14986 | 18.07314 | 36229 ft | 432 kts | 323° |
| 2026-04-07 13:17 | 41.19710 | 18.02384 | 36230 ft | 432 kts | 323° |
| 2026-04-07 13:17 | 41.24425 | 17.97451 | 36231 ft | 432 kts | 323° |
| 2026-04-07 13:18 | 41.29141 | 17.92515 | 36230 ft | 431 kts | 323° |
| 2026-04-07 13:18 | 41.33850 | 17.87569 | 36228 ft | 431 kts | 323° |
| 2026-04-07 13:19 | 41.38552 | 17.82601 | 36228 ft | 431 kts | 323° |
| 2026-04-07 13:19 | 41.43253 | 17.77635 | 36226 ft | 431 kts | 323° |
| 2026-04-07 13:20 | 41.47965 | 17.72672 | 36216 ft | 431 kts | 323° |
| 2026-04-07 13:20 | 41.52672 | 17.67707 | 36216 ft | 432 kts | 323° |
| 2026-04-07 13:21 | 41.57377 | 17.62713 | 36216 ft | 432 kts | 323° |
| 2026-04-07 13:21 | 41.62083 | 17.57714 | 36218 ft | 432 kts | 323° |
| 2026-04-07 13:22 | 41.66789 | 17.52709 | 36224 ft | 432 kts | 323° |
| 2026-04-07 13:22 | 41.71495 | 17.47691 | 36219 ft | 432 kts | 323° |
| 2026-04-07 13:23 | 41.76197 | 17.42669 | 36219 ft | 433 kts | 323° |
| 2026-04-07 13:23 | 41.80903 | 17.37640 | 36212 ft | 433 kts | 323° |
| 2026-04-07 13:24 | 41.85605 | 17.32598 | 36211 ft | 433 kts | 323° |
| 2026-04-07 13:24 | 41.90277 | 17.27569 | 36213 ft | 433 kts | 323° |
| 2026-04-07 13:25 | 41.94949 | 17.22450 | 36213 ft | 434 kts | 321° |
| 2026-04-07 13:25 | 41.99494 | 17.17106 | 36217 ft | 434 kts | 320° |
| 2026-04-07 13:26 | 42.03995 | 17.11684 | 36219 ft | 434 kts | 320° |
| 2026-04-07 13:26 | 42.08510 | 17.06285 | 36218 ft | 434 kts | 320° |
| 2026-04-07 13:27 | 42.13045 | 17.00901 | 36211 ft | 435 kts | 320° |
| 2026-04-07 13:27 | 42.17581 | 16.95509 | 36209 ft | 435 kts | 320° |
| 2026-04-07 13:28 | 42.22109 | 16.90101 | 36214 ft | 435 kts | 320° |
| 2026-04-07 13:28 | 42.26638 | 16.84685 | 36213 ft | 435 kts | 320° |
| 2026-04-07 13:29 | 42.31162 | 16.79260 | 36212 ft | 435 kts | 320° |
| 2026-04-07 13:29 | 42.35687 | 16.73827 | 36214 ft | 435 kts | 319° |
| 2026-04-07 13:30 | 42.40171 | 16.68421 | 36206 ft | 435 kts | 319° |
| 2026-04-07 13:30 | 42.44687 | 16.62969 | 36210 ft | 435 kts | 319° |
| 2026-04-07 13:31 | 42.49209 | 16.57513 | 36213 ft | 435 kts | 319° |
| 2026-04-07 13:31 | 42.53724 | 16.52043 | 36212 ft | 435 kts | 319° |
| 2026-04-07 13:32 | 42.58234 | 16.46564 | 36220 ft | 435 kts | 319° |
| 2026-04-07 13:32 | 42.62747 | 16.41085 | 36220 ft | 435 kts | 319° |
| 2026-04-07 13:33 | 42.67258 | 16.35604 | 36229 ft | 435 kts | 319° |
| 2026-04-07 13:33 | 42.74008 | 16.27353 | 36213 ft | 435 kts | 319° |
| 2026-04-07 13:34 | 42.78479 | 16.21885 | 36207 ft | 435 kts | 319° |
| 2026-04-07 13:34 | 42.82984 | 16.16363 | 36210 ft | 435 kts | 319° |
| 2026-04-07 13:35 | 42.87479 | 16.10831 | 36209 ft | 436 kts | 319° |
| 2026-04-07 13:35 | 42.91974 | 16.05287 | 36211 ft | 435 kts | 319° |
| 2026-04-07 13:36 | 42.96460 | 15.99742 | 36204 ft | 435 kts | 319° |
| 2026-04-07 13:36 | 43.00948 | 15.94187 | 36203 ft | 435 kts | 319° |
| 2026-04-07 13:37 | 43.05435 | 15.88619 | 36205 ft | 436 kts | 319° |
| 2026-04-07 13:37 | 43.09927 | 15.83045 | 36202 ft | 436 kts | 319° |
| 2026-04-07 13:38 | 43.14421 | 15.77462 | 36206 ft | 436 kts | 319° |
| 2026-04-07 13:38 | 43.18906 | 15.71870 | 36208 ft | 436 kts | 319° |
| 2026-04-07 13:39 | 43.23390 | 15.66271 | 36206 ft | 436 kts | 319° |
| 2026-04-07 13:39 | 43.27868 | 15.60660 | 36206 ft | 436 kts | 319° |
| 2026-04-07 13:40 | 43.32346 | 15.55034 | 36200 ft | 437 kts | 319° |
| 2026-04-07 13:40 | 43.36838 | 15.49393 | 36200 ft | 437 kts | 319° |
| 2026-04-07 13:41 | 43.41319 | 15.43746 | 36204 ft | 437 kts | 319° |
| 2026-04-07 13:41 | 43.45798 | 15.38093 | 36215 ft | 437 kts | 319° |
| 2026-04-07 13:42 | 43.50271 | 15.32426 | 36205 ft | 437 kts | 319° |
| 2026-04-07 13:42 | 43.54710 | 15.26789 | 36199 ft | 437 kts | 319° |
| 2026-04-07 13:43 | 43.59175 | 15.21101 | 36201 ft | 437 kts | 319° |
| 2026-04-07 13:43 | 43.63647 | 15.15408 | 36208 ft | 437 kts | 319° |
| 2026-04-07 13:44 | 43.68115 | 15.09722 | 36210 ft | 437 kts | 319° |
| 2026-04-07 13:44 | 43.72575 | 15.04012 | 36208 ft | 437 kts | 319° |
| 2026-04-07 13:45 | 43.77030 | 14.98294 | 36209 ft | 437 kts | 318° |
| 2026-04-07 13:45 | 43.81480 | 14.92573 | 36204 ft | 437 kts | 319° |
| 2026-04-07 13:46 | 43.85935 | 14.86846 | 36194 ft | 437 kts | 318° |
| 2026-04-07 13:46 | 43.90388 | 14.81096 | 36188 ft | 438 kts | 318° |
| 2026-04-07 13:47 | 43.94845 | 14.75333 | 36195 ft | 438 kts | 318° |
| 2026-04-07 13:47 | 43.99306 | 14.69553 | 36195 ft | 438 kts | 318° |
| 2026-04-07 13:48 | 44.03763 | 14.63767 | 36195 ft | 439 kts | 318° |
| 2026-04-07 13:48 | 44.08216 | 14.57971 | 36203 ft | 438 kts | 318° |
| 2026-04-07 13:49 | 44.12662 | 14.52179 | 36211 ft | 438 kts | 318° |
| 2026-04-07 13:49 | 44.16348 | 14.47364 | 36212 ft | 437 kts | 318° |
| 2026-04-07 13:50 | 44.21522 | 14.40582 | 36209 ft | 437 kts | 318° |
| 2026-04-07 13:50 | 44.25945 | 14.34776 | 36208 ft | 436 kts | 318° |
| 2026-04-07 13:51 | 44.29617 | 14.29947 | 36202 ft | 436 kts | 318° |
| 2026-04-07 13:51 | 44.34748 | 14.23192 | 36205 ft | 436 kts | 318° |
| 2026-04-07 13:52 | 44.39151 | 14.17373 | 36203 ft | 436 kts | 318° |
| 2026-04-07 13:52 | 44.43554 | 14.11546 | 36203 ft | 436 kts | 318° |
| 2026-04-07 13:53 | 44.47238 | 14.06657 | 36201 ft | 435 kts | 318° |
| 2026-04-07 13:53 | 44.51627 | 14.00815 | 36193 ft | 436 kts | 318° |
| 2026-04-07 13:54 | 44.56015 | 13.94965 | 36201 ft | 435 kts | 318° |
| 2026-04-07 13:54 | 44.60404 | 13.89104 | 36203 ft | 435 kts | 318° |
| 2026-04-07 13:55 | 44.64783 | 13.83248 | 36201 ft | 435 kts | 318° |
| 2026-04-07 13:55 | 44.69164 | 13.77378 | 36201 ft | 435 kts | 318° |
| 2026-04-07 13:56 | 44.73537 | 13.71506 | 36188 ft | 435 kts | 318° |
| 2026-04-07 13:56 | 44.77908 | 13.65611 | 36191 ft | 435 kts | 318° |
| 2026-04-07 13:57 | 44.82248 | 13.59744 | 36198 ft | 435 kts | 318° |
| 2026-04-07 13:57 | 44.86617 | 13.53842 | 36199 ft | 435 kts | 318° |
| 2026-04-07 13:58 | 44.90977 | 13.47932 | 36197 ft | 435 kts | 318° |
| 2026-04-07 13:58 | 44.95338 | 13.42018 | 36185 ft | 435 kts | 318° |
| 2026-04-07 13:59 | 44.99701 | 13.36082 | 36183 ft | 436 kts | 317° |
| 2026-04-07 13:59 | 45.04058 | 13.30133 | 36192 ft | 435 kts | 317° |
| 2026-04-07 14:00 | 45.08403 | 13.24170 | 36191 ft | 435 kts | 317° |
| 2026-04-07 14:00 | 45.12747 | 13.18211 | 36193 ft | 435 kts | 317° |
| 2026-04-07 14:01 | 45.17091 | 13.12257 | 36181 ft | 435 kts | 317° |
| 2026-04-07 14:01 | 45.21434 | 13.06277 | 36178 ft | 435 kts | 317° |
| 2026-04-07 14:02 | 45.25787 | 13.00301 | 36178 ft | 435 kts | 320° |
| 2026-04-07 14:02 | 45.30646 | 12.95242 | 36182 ft | 433 kts | 326° |
| 2026-04-07 14:03 | 45.35580 | 12.90337 | 36180 ft | 433 kts | 326° |
| 2026-04-07 14:03 | 45.40482 | 12.85358 | 36173 ft | 433 kts | 326° |
| 2026-04-07 14:04 | 45.45250 | 12.80420 | 36163 ft | 416 kts | 325° |
| 2026-04-07 14:04 | 45.47550 | 12.78028 | 36166 ft | 404 kts | 325° |
| 2026-04-07 14:04 | 45.49806 | 12.75685 | 36167 ft | 400 kts | 326° |
| 2026-04-07 14:05 | 45.54283 | 12.71042 | 36166 ft | 397 kts | 326° |
| 2026-04-07 14:05 | 45.58749 | 12.66404 | 36166 ft | 397 kts | 326° |
| 2026-04-07 14:06 | 45.63190 | 12.61799 | 36164 ft | 397 kts | 326° |
| 2026-04-07 14:06 | 45.67655 | 12.57156 | 36159 ft | 397 kts | 326° |
| 2026-04-07 14:07 | 45.72118 | 12.52500 | 36172 ft | 397 kts | 326° |
| 2026-04-07 14:07 | 45.76572 | 12.47831 | 36178 ft | 397 kts | 325° |
| 2026-04-07 14:08 | 45.81013 | 12.43144 | 36180 ft | 396 kts | 325° |
| 2026-04-07 14:08 | 45.85456 | 12.38461 | 36182 ft | 396 kts | 325° |
| 2026-04-07 14:09 | 45.89900 | 12.33793 | 36180 ft | 396 kts | 325° |
| 2026-04-07 14:09 | 45.94344 | 12.29118 | 36175 ft | 396 kts | 325° |
| 2026-04-07 14:10 | 45.98787 | 12.24432 | 36169 ft | 396 kts | 325° |
| 2026-04-07 14:10 | 46.03230 | 12.19731 | 36163 ft | 396 kts | 325° |
| 2026-04-07 14:11 | 46.07678 | 12.15035 | 36153 ft | 397 kts | 325° |
| 2026-04-07 14:11 | 46.12120 | 12.10316 | 36150 ft | 397 kts | 325° |
| 2026-04-07 14:12 | 46.16558 | 12.05583 | 36150 ft | 397 kts | 325° |
| 2026-04-07 14:12 | 46.20996 | 12.00846 | 36136 ft | 397 kts | 325° |
| 2026-04-07 14:13 | 46.25427 | 11.96110 | 36147 ft | 396 kts | 325° |
| 2026-04-07 14:13 | 46.29849 | 11.91374 | 36132 ft | 396 kts | 325° |
| 2026-04-07 14:14 | 46.32058 | 11.89001 | 35881 ft | 395 kts | 325° |
| 2026-04-07 14:14 | 46.34267 | 11.86625 | 35632 ft | 396 kts | 325° |
| 2026-04-07 14:14 | 46.36473 | 11.84248 | 35384 ft | 395 kts | 324° |
| 2026-04-07 14:14 | 46.38679 | 11.81870 | 35136 ft | 397 kts | 324° |
| 2026-04-07 14:15 | 46.40897 | 11.79479 | 34883 ft | 397 kts | 324° |
| 2026-04-07 14:15 | 46.43115 | 11.77088 | 34635 ft | 398 kts | 324° |
| 2026-04-07 14:15 | 46.45336 | 11.74692 | 34389 ft | 398 kts | 324° |
| 2026-04-07 14:15 | 46.47561 | 11.72289 | 34179 ft | 398 kts | 324° |
| 2026-04-07 14:16 | 46.51973 | 11.67519 | 34123 ft | 399 kts | 324° |
| 2026-04-07 14:16 | 46.56420 | 11.62694 | 34113 ft | 399 kts | 324° |
| 2026-04-07 14:17 | 46.60874 | 11.57852 | 34114 ft | 400 kts | 324° |
| 2026-04-07 14:17 | 46.65329 | 11.53010 | 34128 ft | 399 kts | 324° |
| 2026-04-07 14:18 | 46.69777 | 11.48155 | 34133 ft | 399 kts | 324° |
| 2026-04-07 14:18 | 46.74219 | 11.43290 | 34153 ft | 400 kts | 324° |
| 2026-04-07 14:19 | 46.78677 | 11.38397 | 34176 ft | 401 kts | 324° |
| 2026-04-07 14:19 | 46.83134 | 11.33492 | 34195 ft | 401 kts | 324° |
| 2026-04-07 14:20 | 46.87567 | 11.28610 | 34225 ft | 398 kts | 324° |
| 2026-04-07 14:20 | 46.91992 | 11.23737 | 33955 ft | 398 kts | 324° |
| 2026-04-07 14:21 | 46.94215 | 11.21321 | 33679 ft | 398 kts | 324° |
| 2026-04-07 14:21 | 46.96455 | 11.18942 | 33444 ft | 398 kts | 325° |
| 2026-04-07 14:21 | 46.98704 | 11.16576 | 33165 ft | 398 kts | 325° |
| 2026-04-07 14:21 | 47.00955 | 11.14220 | 32895 ft | 399 kts | 325° |
| 2026-04-07 14:22 | 47.03212 | 11.11852 | 32620 ft | 399 kts | 326° |
| 2026-04-07 14:22 | 47.05470 | 11.09474 | 32362 ft | 399 kts | 326° |
| 2026-04-07 14:22 | 47.07724 | 11.07089 | 32109 ft | 399 kts | 325° |
| 2026-04-07 14:22 | 47.09973 | 11.04701 | 31850 ft | 398 kts | 325° |
| 2026-04-07 14:23 | 47.12184 | 11.02348 | 31601 ft | 398 kts | 325° |
| 2026-04-07 14:23 | 47.14456 | 10.99930 | 31345 ft | 399 kts | 325° |
| 2026-04-07 14:23 | 47.16705 | 10.97537 | 31096 ft | 399 kts | 325° |
| 2026-04-07 14:23 | 47.18926 | 10.95169 | 30867 ft | 401 kts | 325° |
| 2026-04-07 14:24 | 47.21189 | 10.92753 | 30622 ft | 403 kts | 325° |
| 2026-04-07 14:24 | 47.23461 | 10.90324 | 30381 ft | 404 kts | 325° |
| 2026-04-07 14:24 | 47.25734 | 10.87896 | 30191 ft | 403 kts | 325° |
| 2026-04-07 14:24 | 47.28001 | 10.85471 | 30237 ft | 404 kts | 326° |
| 2026-04-07 14:25 | 47.32546 | 10.80599 | 30240 ft | 404 kts | 325° |
| 2026-04-07 14:25 | 47.37099 | 10.75706 | 30246 ft | 405 kts | 325° |
| 2026-04-07 14:26 | 47.41652 | 10.70803 | 30233 ft | 405 kts | 325° |
| 2026-04-07 14:26 | 47.46200 | 10.65892 | 30254 ft | 405 kts | 325° |
| 2026-04-07 14:27 | 47.50747 | 10.60975 | 30258 ft | 405 kts | 325° |
| 2026-04-07 14:27 | 47.55290 | 10.56055 | 30257 ft | 404 kts | 325° |
| 2026-04-07 14:28 | 47.59814 | 10.51131 | 30241 ft | 404 kts | 325° |
| 2026-04-07 14:28 | 47.64345 | 10.46184 | 30248 ft | 405 kts | 325° |
| 2026-04-07 14:29 | 47.68869 | 10.41201 | 30256 ft | 406 kts | 321° |
| 2026-04-07 14:29 | 47.72482 | 10.34752 | 29654 ft | 411 kts | 300° |
| 2026-04-07 14:30 | 47.73589 | 10.30884 | 29111 ft | 415 kts | 289° |
| 2026-04-07 14:30 | 47.74202 | 10.26680 | 28563 ft | 420 kts | 279° |
| 2026-04-07 14:30 | 47.74289 | 10.22264 | 28023 ft | 424 kts | 271° |
| 2026-04-07 14:30 | 47.74189 | 10.17936 | 27506 ft | 426 kts | 271° |
| 2026-04-07 14:31 | 47.74090 | 10.13534 | 26978 ft | 426 kts | 271° |
| 2026-04-07 14:31 | 47.73987 | 10.09156 | 26472 ft | 423 kts | 271° |
| 2026-04-07 14:31 | 47.73881 | 10.04798 | 25976 ft | 421 kts | 270° |
| 2026-04-07 14:31 | 47.73775 | 10.00471 | 25489 ft | 418 kts | 271° |
| 2026-04-07 14:32 | 47.73669 | 9.96178 | 25008 ft | 415 kts | 270° |
| 2026-04-07 14:32 | 47.73563 | 9.91915 | 24535 ft | 412 kts | 271° |
| 2026-04-07 14:32 | 47.73456 | 9.87679 | 24072 ft | 409 kts | 270° |
| 2026-04-07 14:32 | 47.73348 | 9.83470 | 23571 ft | 406 kts | 270° |
| 2026-04-07 14:33 | 47.73240 | 9.79296 | 23028 ft | 403 kts | 270° |
| 2026-04-07 14:33 | 47.73130 | 9.75155 | 22495 ft | 400 kts | 270° |
| 2026-04-07 14:33 | 47.73019 | 9.71051 | 21963 ft | 397 kts | 270° |
| 2026-04-07 14:33 | 47.72908 | 9.66972 | 21443 ft | 394 kts | 270° |
| 2026-04-07 14:34 | 47.72797 | 9.62927 | 21088 ft | 391 kts | 270° |
| 2026-04-07 14:34 | 47.72688 | 9.58896 | 20835 ft | 390 kts | 270° |
| 2026-04-07 14:34 | 47.72578 | 9.54884 | 20586 ft | 389 kts | 270° |
| 2026-04-07 14:34 | 47.72463 | 9.50874 | 20256 ft | 387 kts | 270° |
| 2026-04-07 14:35 | 47.72345 | 9.46898 | 19770 ft | 384 kts | 270° |
| 2026-04-07 14:35 | 47.72229 | 9.42948 | 19295 ft | 382 kts | 270° |
| 2026-04-07 14:35 | 47.72114 | 9.39030 | 18825 ft | 379 kts | 270° |
| 2026-04-07 14:35 | 47.72002 | 9.35131 | 18333 ft | 376 kts | 270° |
| 2026-04-07 14:36 | 47.71891 | 9.31264 | 17800 ft | 374 kts | 270° |
| 2026-04-07 14:36 | 47.71781 | 9.27428 | 17262 ft | 371 kts | 270° |
| 2026-04-07 14:36 | 47.71675 | 9.23602 | 16747 ft | 369 kts | 270° |
| 2026-04-07 14:36 | 47.71571 | 9.19809 | 16244 ft | 367 kts | 270° |
| 2026-04-07 14:37 | 47.71469 | 9.16047 | 15861 ft | 362 kts | 270° |
| 2026-04-07 14:37 | 47.71367 | 9.12330 | 15491 ft | 358 kts | 270° |
| 2026-04-07 14:37 | 47.71266 | 9.08650 | 15122 ft | 356 kts | 270° |
| 2026-04-07 14:37 | 47.71199 | 9.06218 | 14882 ft | 354 kts | 270° |
| 2026-04-07 14:38 | 47.71066 | 9.01353 | 14444 ft | 350 kts | 270° |
| 2026-04-07 14:38 | 47.70970 | 8.97831 | 14210 ft | 341 kts | 270° |
| 2026-04-07 14:38 | 47.70904 | 8.95475 | 14050 ft | 336 kts | 270° |
| 2026-04-07 14:38 | 47.70808 | 8.92046 | 13784 ft | 329 kts | 270° |
| 2026-04-07 14:39 | 47.70591 | 8.84344 | 13169 ft | 314 kts | 270° |
| 2026-04-07 14:39 | 47.70502 | 8.81129 | 12911 ft | 309 kts | 270° |
| 2026-04-07 14:39 | 47.70414 | 8.77968 | 12656 ft | 304 kts | 270° |
| 2026-04-07 14:40 | 47.70327 | 8.74863 | 12404 ft | 298 kts | 270° |
| 2026-04-07 14:40 | 47.70269 | 8.72794 | 12234 ft | 296 kts | 270° |
| 2026-04-07 14:40 | 47.70185 | 8.69761 | 11977 ft | 293 kts | 270° |
| 2026-04-07 14:40 | 47.70102 | 8.66760 | 11661 ft | 290 kts | 270° |
| 2026-04-07 14:41 | 47.70020 | 8.63771 | 11338 ft | 289 kts | 270° |
| 2026-04-07 14:41 | 47.69942 | 8.60843 | 11008 ft | 287 kts | 270° |
| 2026-04-07 14:41 | 47.69862 | 8.57892 | 10643 ft | 286 kts | 270° |
| 2026-04-07 14:41 | 47.69783 | 8.54954 | 10326 ft | 284 kts | 270° |
| 2026-04-07 14:42 | 47.69702 | 8.52031 | 9997 ft | 283 kts | 267° |
| 2026-04-07 14:42 | 47.69171 | 8.49243 | 9606 ft | 282 kts | 242° |
| 2026-04-07 14:42 | 47.68063 | 8.46852 | 8969 ft | 282 kts | 234° |
| 2026-04-07 14:42 | 47.66864 | 8.44562 | 8331 ft | 280 kts | 233° |
| 2026-04-07 14:43 | 47.65669 | 8.42299 | 7683 ft | 275 kts | 233° |
| 2026-04-07 14:43 | 47.64486 | 8.40143 | 6999 ft | 264 kts | 226° |
| 2026-04-07 14:43 | 47.62993 | 8.38676 | 6354 ft | 255 kts | 200° |
| 2026-04-07 14:43 | 47.61269 | 8.38310 | 5719 ft | 249 kts | 175° |
| 2026-04-07 14:44 | 47.59612 | 8.38899 | 5168 ft | 242 kts | 158° |
| 2026-04-07 14:44 | 47.58172 | 8.40100 | 4631 ft | 234 kts | 141° |
| 2026-04-07 14:44 | 47.56966 | 8.41653 | 4196 ft | 224 kts | 138° |
| 2026-04-07 14:44 | 47.55835 | 8.43194 | 3734 ft | 219 kts | 137° |
| 2026-04-07 14:45 | 47.54745 | 8.44698 | 3247 ft | 208 kts | 137° |
| 2026-04-07 14:45 | 47.53735 | 8.46082 | 3006 ft | 189 kts | 137° |
| 2026-04-07 14:45 | 47.52808 | 8.47350 | 2791 ft | 177 kts | 137° |
| 2026-04-07 14:45 | 47.51910 | 8.48574 | 2469 ft | 173 kts | 139° |
| 2026-04-07 14:46 | 47.51041 | 8.49741 | 2176 ft | 166 kts | 137° |
| 2026-04-07 14:46 | 47.50214 | 8.50870 | 1953 ft | 159 kts | 137° |
| 2026-04-07 14:46 | 47.49408 | 8.51971 | 1750 ft | 157 kts | 135° |
| 2026-04-07 14:46 | 47.48608 | 8.53069 | 1557 ft | 157 kts | 137° |
| 2026-04-07 14:47 | 47.47809 | 8.54157 | 1411 ft | 150 kts | 136° |
| 2026-04-07 14:47 | 47.47128 | 8.55086 | 1383 ft | 111 kts | 137° |
| 2026-04-07 14:47 | 47.46764 | 8.55571 | 1399 ft | 39 kts | 144° |
| 2026-04-07 14:47 | 47.46568 | 8.55686 | 1399 ft | 28 kts | 165° |
| 2026-04-07 14:48 | 47.46400 | 8.55749 | 1402 ft | 19 kts | 157° |
| 2026-04-07 14:48 | 47.46298 | 8.55872 | 1409 ft | 19 kts | 138° |
| 2026-04-07 14:48 | 47.46203 | 8.55991 | 1408 ft | 16 kts | 155° |
| 2026-04-07 14:48 | 47.46105 | 8.55991 | 1407 ft | 13 kts | 184° |
| 2026-04-07 14:49 | 47.46022 | 8.55979 | 1407 ft | 12 kts | 186° |
| 2026-04-07 14:49 | 47.45949 | 8.55945 | 1413 ft | 11 kts | 225° |
| 2026-04-07 14:49 | 47.45946 | 8.55787 | 1404 ft | 21 kts | 275° |
| 2026-04-07 14:49 | 47.45962 | 8.55555 | 1400 ft | 25 kts | 276° |
| 2026-04-07 14:50 | 47.45980 | 8.55292 | 1401 ft | 23 kts | 276° |
| 2026-04-07 14:50 | 47.46002 | 8.55115 | 1399 ft | 16 kts | 303° |
| 2026-04-07 14:50 | 47.46077 | 8.55070 | 1397 ft | 6 kts | 35° |
| 2026-04-07 14:50 | 47.46092 | 8.55108 | 1399 ft | 3 kts | 63° |
| 2026-04-07 14:51 | 47.46096 | 8.55121 | 1396 ft | 0 kts | 63° |
| 2026-04-07 14:51 | 47.46098 | 8.55125 | 1395 ft | 2 kts | 63° |
| 2026-04-07 14:51 | 47.46103 | 8.55141 | 1400 ft | 1 kts | 65° |
| 2026-04-07 14:51 | 47.46105 | 8.55146 | 1399 ft | 0 kts | 64° |